createdAt,value
2022-10-18T00:00:40.123Z,17.00
2022-10-18T00:03:44.036Z,16.50
2022-10-18T00:06:47.257Z,16.00
2022-10-18T00:09:52.126Z,14.00
2022-10-18T00:12:55.585Z,15.25
2022-10-18T00:16:00.680Z,16.00
2022-10-18T00:19:03.901Z,15.00
2022-10-18T00:22:07.196Z,14.00
2022-10-18T00:25:11.889Z,14.80
2022-10-18T00:28:15.169Z,14.75
2022-10-18T00:31:20.502Z,12.00
2022-10-18T00:34:23.847Z,13.00
2022-10-18T00:37:27.067Z,16.00
2022-10-18T00:40:31.918Z,17.25
2022-10-18T00:43:50.000Z,14.00
2022-10-18T00:46:55.671Z,14.00
2022-10-18T00:50:03.951Z,15.00
2022-10-18T00:53:11.502Z,14.00
2022-10-18T00:56:16.390Z,15.00
2022-10-18T00:59:20.292Z,15.80
2022-10-18T01:02:23.912Z,15.00
2022-10-18T01:05:27.723Z,16.60
2022-10-18T01:08:46.151Z,15.00
2022-10-18T01:12:10.719Z,15.75
2022-10-18T01:15:20.916Z,14.80
2022-10-18T01:18:35.675Z,13.20
2022-10-18T01:21:45.699Z,14.50
2022-10-18T01:25:05.162Z,13.60
2022-10-18T01:28:21.486Z,13.00
2022-10-18T01:31:31.690Z,13.00
2022-10-18T01:34:38.299Z,14.00
2022-10-18T01:37:46.395Z,15.00
2022-10-18T01:40:52.868Z,13.00
2022-10-18T01:43:59.741Z,12.00
2022-10-18T01:47:06.463Z,13.00
2022-10-18T01:50:10.510Z,13.80
2022-10-18T01:53:29.850Z,14.00
2022-10-18T01:56:43.863Z,13.50
2022-10-18T01:59:55.672Z,11.00
2022-10-18T02:03:08.027Z,12.00
2022-10-18T02:06:20.007Z,13.00
2022-10-18T02:09:34.747Z,15.40
2022-10-18T02:12:42.302Z,15.00
2022-10-18T02:15:49.717Z,15.00
2022-10-18T02:19:02.059Z,13.20
2022-10-18T02:22:07.342Z,14.00
2022-10-18T02:25:17.627Z,12.00
2022-10-18T02:28:21.335Z,11.00
2022-10-18T02:31:29.454Z,14.25
2022-10-18T02:34:40.935Z,13.00
2022-10-18T02:37:44.423Z,14.60
2022-10-18T02:40:47.674Z,15.25
2022-10-18T02:43:51.026Z,13.00
2022-10-18T02:46:54.659Z,14.20
2022-10-18T02:49:59.299Z,14.40
2022-10-18T02:53:02.580Z,15.00
2022-10-18T02:56:06.648Z,14.00
2022-10-18T02:59:09.823Z,16.00
2022-10-18T03:02:13.443Z,15.60
2022-10-18T03:05:20.342Z,13.80
2022-10-18T03:08:24.253Z,14.33
2022-10-18T03:11:27.684Z,15.60
2022-10-18T03:14:31.200Z,15.00
2022-10-18T03:17:34.623Z,17.00
2022-10-18T03:20:39.501Z,16.25
2022-10-18T03:23:42.925Z,17.00
2022-10-18T03:26:46.163Z,17.00
2022-10-18T03:29:49.458Z,17.00
2022-10-18T03:32:54.293Z,15.80
2022-10-18T03:35:59.466Z,17.00
2022-10-18T03:39:02.727Z,15.40
2022-10-18T03:42:05.975Z,15.60
2022-10-18T03:45:10.529Z,15.00
2022-10-18T03:48:14.365Z,14.00
2022-10-18T03:51:18.990Z,14.67
2022-10-18T03:54:22.234Z,13.33
2022-10-18T03:57:25.512Z,14.00
2022-10-18T04:00:28.830Z,14.60
2022-10-18T04:03:32.321Z,13.80
2022-10-18T04:06:36.974Z,15.00
2022-10-18T04:09:40.178Z,12.00
2022-10-18T04:12:43.505Z,13.80
2022-10-18T04:15:46.755Z,11.00
2022-10-18T04:18:50.463Z,13.40
2022-10-18T04:21:55.399Z,14.00
2022-10-18T04:24:58.728Z,14.00
2022-10-18T04:28:02.023Z,10.00
2022-10-18T04:31:05.305Z,12.00
2022-10-18T04:34:08.745Z,11.00
2022-10-18T04:37:13.445Z,13.80
2022-10-18T04:40:16.654Z,14.00
2022-10-18T04:43:20.378Z,10.80
2022-10-18T04:46:23.823Z,13.00
2022-10-18T04:49:27.296Z,13.50
2022-10-18T04:52:32.738Z,13.00
2022-10-18T04:55:36.005Z,16.00
2022-10-18T04:58:39.244Z,14.00
2022-10-18T05:01:42.555Z,13.40
2022-10-18T05:04:45.947Z,14.00
2022-10-18T05:07:50.564Z,14.00
2022-10-18T05:10:53.899Z,12.75
2022-10-18T05:13:57.280Z,14.00
2022-10-18T05:17:00.652Z,15.60
2022-10-18T05:20:04.786Z,13.00
2022-10-18T05:23:10.863Z,13.25
2022-10-18T05:26:14.363Z,16.00
2022-10-18T05:29:17.692Z,15.40
2022-10-18T05:32:21.024Z,14.20
2022-10-18T05:35:24.331Z,15.00
2022-10-18T05:38:31.107Z,15.00
2022-10-18T05:41:35.142Z,13.00
2022-10-18T05:44:38.589Z,14.00
2022-10-18T05:47:42.418Z,15.00
2022-10-18T05:50:45.788Z,13.00
2022-10-18T05:53:50.760Z,10.80
2022-10-18T05:56:54.238Z,13.00
2022-10-18T05:59:57.719Z,12.00
2022-10-18T06:03:01.032Z,14.00
2022-10-18T06:06:07.168Z,13.00
2022-10-18T06:09:11.827Z,15.40
2022-10-18T06:12:15.244Z,14.00
2022-10-18T06:15:18.836Z,14.00
2022-10-18T06:18:22.130Z,17.00
2022-10-18T06:21:26.206Z,15.20
2022-10-18T06:24:30.856Z,21.50
2022-10-18T06:27:35.130Z,23.00
2022-10-18T06:30:38.528Z,22.60
2022-10-18T06:33:41.890Z,23.00
2022-10-18T06:36:45.180Z,22.40
2022-10-18T06:39:49.922Z,22.00
2022-10-18T06:43:00.156Z,19.20
2022-10-18T06:46:10.117Z,19.00
2022-10-18T06:49:18.233Z,18.40
2022-10-18T06:52:25.783Z,17.00
2022-10-18T06:55:31.517Z,16.50
2022-10-18T06:58:35.780Z,14.80
2022-10-18T07:01:39.541Z,15.00
2022-10-18T07:04:43.456Z,14.80
2022-10-18T07:07:46.697Z,17.00
2022-10-18T07:10:55.471Z,15.00
2022-10-18T07:14:03.214Z,13.40
2022-10-18T07:17:06.541Z,13.80
2022-10-18T07:20:10.534Z,12.40
2022-10-18T07:23:13.816Z,12.00
2022-10-18T07:26:21.958Z,11.00
2022-10-18T07:29:25.373Z,10.20
2022-10-18T07:32:28.589Z,12.00
2022-10-18T07:35:31.886Z,10.00
2022-10-18T07:38:35.739Z,11.00
2022-10-18T07:41:40.408Z,10.00
2022-10-18T07:44:43.709Z,10.80
2022-10-18T07:47:46.930Z,10.00
2022-10-18T07:50:50.173Z,10.40
2022-10-18T07:53:53.449Z,10.00
2022-10-18T07:56:58.080Z,9.00
2022-10-18T08:00:01.560Z,10.00
2022-10-18T08:03:14.761Z,10.00
2022-10-18T08:06:20.556Z,9.00
2022-10-18T08:09:23.861Z,9.00
2022-10-18T08:12:28.753Z,10.00
2022-10-18T08:15:32.187Z,11.00
2022-10-18T08:18:36.082Z,10.40
2022-10-18T08:21:39.534Z,9.00
2022-10-18T08:24:42.812Z,9.00
2022-10-18T08:27:47.411Z,9.60
2022-10-18T08:30:50.639Z,10.33
2022-10-18T08:33:56.279Z,8.60
2022-10-18T08:36:59.467Z,10.00
2022-10-18T08:40:02.738Z,10.00
2022-10-18T08:43:21.542Z,9.00
2022-10-18T08:46:25.724Z,9.00
2022-10-18T08:49:35.971Z,9.00
2022-10-18T08:52:47.205Z,10.00
2022-10-18T08:55:53.580Z,9.00
2022-10-18T08:58:58.261Z,10.00
2022-10-18T09:02:14.118Z,11.00
2022-10-18T09:05:25.236Z,10.00
2022-10-18T09:08:57.101Z,9.00
2022-10-18T09:12:10.692Z,10.00
2022-10-18T09:15:25.477Z,9.80
2022-10-18T09:18:49.266Z,10.00
2022-10-18T09:21:54.585Z,9.00
2022-10-18T09:25:06.568Z,10.00
2022-10-18T09:28:17.695Z,10.00
2022-10-18T09:31:34.120Z,10.20
2022-10-18T09:34:43.818Z,9.00
2022-10-18T09:37:48.819Z,9.00
2022-10-18T09:40:57.045Z,9.00
2022-10-18T09:44:06.846Z,8.40
2022-10-18T09:47:16.838Z,8.00
2022-10-18T09:50:29.029Z,7.20
2022-10-18T09:53:38.332Z,8.00
2022-10-18T09:56:47.119Z,8.00
2022-10-18T09:59:51.905Z,7.00
2022-10-18T10:02:56.638Z,7.00
2022-10-18T10:06:04.619Z,7.00
2022-10-18T10:09:15.960Z,7.60
2022-10-18T10:12:31.961Z,7.00
2022-10-18T10:15:38.239Z,7.00
2022-10-18T10:18:54.689Z,6.75
2022-10-18T10:22:03.503Z,5.20
2022-10-18T10:25:08.851Z,5.00
2022-10-18T10:28:17.975Z,6.00
2022-10-18T10:31:29.057Z,5.00
2022-10-18T10:34:33.623Z,6.00
2022-10-18T10:37:39.086Z,7.00
2022-10-18T10:40:50.341Z,5.80
2022-10-18T10:43:53.818Z,6.50
2022-10-18T10:46:58.224Z,7.00
2022-10-18T10:50:12.697Z,6.40
2022-10-18T10:53:32.034Z,6.00
2022-10-18T10:56:38.824Z,6.00
2022-10-18T10:59:46.065Z,6.00
2022-10-18T11:02:59.313Z,5.00
2022-10-18T11:06:33.237Z,5.60
2022-10-18T11:09:50.352Z,5.60
2022-10-18T11:13:02.793Z,6.00
2022-10-18T11:16:13.070Z,5.00
2022-10-18T11:19:33.994Z,5.00
2022-10-18T11:22:44.653Z,5.40
2022-10-18T11:26:03.490Z,6.00
2022-10-18T11:29:28.646Z,6.00
2022-10-18T11:32:39.272Z,5.20
2022-10-18T11:35:50.254Z,5.00
2022-10-18T11:39:04.122Z,6.00
2022-10-18T11:42:17.918Z,7.80
2022-10-18T11:45:34.788Z,8.00
2022-10-18T11:49:03.391Z,7.00
2022-10-18T11:52:15.042Z,8.00
2022-10-18T11:55:33.005Z,7.00
2022-10-18T11:58:53.012Z,6.00
2022-10-18T12:02:13.217Z,8.00
2022-10-18T12:05:24.770Z,7.00
2022-10-18T12:08:34.599Z,7.00
2022-10-18T12:11:47.130Z,6.00
2022-10-18T12:14:56.133Z,6.00
2022-10-18T12:18:03.051Z,8.00
2022-10-18T12:21:07.863Z,7.00
2022-10-18T12:24:16.505Z,7.00
2022-10-18T12:27:29.745Z,9.00
2022-10-18T12:30:42.427Z,10.40
2022-10-18T12:33:49.534Z,8.40
2022-10-18T12:37:10.880Z,8.00
2022-10-18T12:40:21.478Z,10.00
2022-10-18T12:43:31.149Z,10.00
2022-10-18T12:46:49.986Z,9.00
2022-10-18T12:50:01.757Z,8.75
2022-10-18T12:53:27.098Z,8.00
2022-10-18T12:56:37.692Z,8.00
2022-10-18T12:59:42.874Z,9.60
2022-10-18T13:02:46.269Z,8.00
2022-10-18T13:05:59.318Z,10.00
2022-10-18T13:09:22.393Z,9.00
2022-10-18T13:13:29.584Z,9.20
2022-10-18T13:16:43.248Z,10.00
2022-10-18T13:20:20.449Z,8.75
2022-10-18T13:23:38.446Z,10.00
2022-10-18T13:26:59.290Z,8.00
2022-10-18T13:30:39.347Z,8.00
2022-10-18T13:33:44.572Z,9.00
2022-10-18T13:36:57.871Z,9.00
2022-10-18T13:40:16.863Z,10.00
2022-10-18T13:43:57.357Z,8.00
2022-10-18T13:47:33.832Z,8.80
2022-10-18T13:50:43.139Z,9.60
2022-10-18T13:53:57.141Z,9.00
2022-10-18T13:57:22.366Z,10.00
2022-10-18T14:00:48.976Z,11.00
2022-10-18T14:04:46.377Z,11.00
2022-10-18T14:07:52.689Z,10.00
2022-10-18T14:11:05.227Z,9.00
2022-10-18T14:14:15.990Z,10.00
2022-10-18T14:17:29.635Z,10.00
2022-10-18T14:20:49.597Z,11.00
2022-10-18T14:24:02.847Z,10.00
2022-10-18T14:27:19.124Z,11.00
2022-10-18T14:30:22.963Z,11.20
2022-10-18T14:33:33.451Z,10.00
2022-10-18T14:36:41.134Z,11.00
2022-10-18T14:39:45.848Z,12.00
2022-10-18T14:42:50.040Z,9.00
2022-10-18T14:45:53.293Z,10.00
2022-10-18T14:48:58.157Z,11.00
2022-10-18T14:52:02.159Z,9.00
2022-10-18T14:55:16.970Z,10.00
2022-10-18T14:58:23.048Z,9.25
2022-10-18T15:01:32.014Z,10.00
2022-10-18T15:04:35.399Z,10.00
2022-10-18T15:07:39.234Z,9.20
2022-10-18T15:10:44.219Z,11.00
2022-10-18T15:13:51.735Z,11.00
2022-10-18T15:17:00.950Z,10.20
2022-10-18T15:20:18.879Z,11.00
2022-10-18T15:23:25.317Z,8.40
2022-10-18T15:26:31.709Z,10.25
2022-10-18T15:29:37.718Z,10.60
2022-10-18T15:32:49.780Z,11.00
2022-10-18T15:35:54.531Z,8.00
2022-10-18T15:39:07.717Z,11.40
2022-10-18T15:42:37.325Z,11.67
2022-10-18T15:49:17.678Z,14.60
2022-10-18T15:52:38.875Z,12.00
2022-10-18T15:55:52.269Z,13.00
2022-10-18T15:58:58.597Z,12.00
2022-10-18T16:02:02.109Z,12.00
2022-10-18T16:05:06.565Z,12.00
2022-10-18T16:08:20.698Z,12.40
2022-10-18T16:11:26.305Z,11.00
2022-10-18T16:14:31.856Z,14.60
2022-10-18T16:17:35.604Z,14.00
2022-10-18T16:20:38.884Z,14.00
2022-10-18T16:23:42.263Z,13.75
2022-10-18T16:26:45.611Z,14.00
2022-10-18T16:29:50.510Z,15.75
2022-10-18T16:32:53.885Z,16.00
2022-10-18T16:35:57.234Z,16.00
2022-10-18T16:39:03.301Z,15.00
2022-10-18T16:42:06.879Z,16.00
2022-10-18T16:45:12.261Z,16.50
2022-10-18T16:48:16.985Z,20.00
2022-10-18T16:51:20.280Z,20.00
2022-10-18T16:54:24.250Z,16.00
2022-10-18T16:57:27.582Z,17.00
2022-10-18T17:00:32.459Z,18.00
2022-10-18T17:03:35.762Z,16.00
2022-10-18T17:06:39.089Z,19.00
2022-10-18T17:09:42.332Z,16.00
2022-10-18T17:12:45.610Z,18.40
2022-10-18T17:15:50.883Z,16.00
2022-10-18T17:18:54.565Z,17.00
2022-10-18T17:22:02.435Z,18.00
2022-10-18T17:25:06.712Z,19.00
2022-10-18T17:28:14.526Z,20.00
2022-10-18T17:31:19.137Z,20.00
2022-10-18T17:34:22.378Z,22.00
2022-10-18T17:37:25.680Z,20.40
2022-10-18T17:40:29.115Z,20.00
2022-10-18T17:43:32.441Z,20.00
2022-10-18T17:46:37.127Z,22.00
2022-10-18T17:49:40.853Z,21.20
2022-10-18T17:52:44.723Z,21.00
2022-10-18T17:55:48.002Z,22.00
2022-10-18T17:58:52.385Z,22.00
2022-10-18T18:01:57.776Z,22.00
2022-10-18T18:05:01.029Z,22.60
2022-10-18T18:08:04.547Z,19.00
2022-10-18T18:11:07.831Z,20.00
2022-10-18T18:14:12.006Z,20.60
2022-10-18T18:17:24.632Z,20.40
2022-10-18T18:20:37.429Z,21.75
2022-10-18T18:23:40.964Z,21.20
2022-10-18T18:26:44.550Z,21.00
2022-10-18T18:29:48.265Z,23.00
2022-10-18T18:32:52.919Z,20.00
2022-10-18T18:35:57.371Z,22.00
2022-10-18T18:39:00.643Z,22.00
2022-10-18T18:42:04.834Z,21.40
2022-10-18T18:45:08.581Z,23.00
2022-10-18T18:48:17.534Z,23.00
2022-10-18T18:51:24.519Z,22.00
2022-10-18T18:54:29.798Z,23.00
2022-10-18T18:57:33.566Z,24.00
2022-10-18T19:00:41.784Z,22.00
2022-10-18T19:03:50.731Z,22.00
2022-10-18T19:06:53.962Z,22.00
2022-10-18T19:09:57.444Z,20.00
2022-10-18T19:13:00.808Z,22.00
2022-10-18T19:16:22.448Z,22.00
2022-10-18T19:19:29.133Z,20.00
2022-10-18T19:22:32.365Z,21.60
2022-10-18T19:25:35.667Z,21.50
2022-10-18T19:28:39.154Z,22.00
2022-10-18T19:31:43.160Z,21.00
2022-10-18T19:34:47.825Z,20.00
2022-10-18T19:37:51.172Z,20.25
2022-10-18T19:40:55.657Z,22.00
2022-10-18T19:43:59.098Z,21.00
2022-10-18T19:47:02.701Z,19.00
2022-10-18T19:50:08.454Z,20.00
2022-10-18T19:53:11.705Z,17.00
2022-10-18T19:56:19.930Z,19.00
2022-10-18T19:59:24.113Z,19.80
2022-10-18T20:02:27.462Z,19.00
2022-10-18T20:05:32.145Z,20.00
2022-10-18T20:08:36.990Z,20.00
2022-10-18T20:11:40.421Z,20.00
2022-10-18T20:14:43.708Z,21.00
2022-10-18T20:20:56.986Z,21.00
2022-10-18T20:24:00.283Z,19.80
2022-10-18T20:27:03.486Z,18.60
2022-10-18T20:30:10.447Z,18.00
2022-10-18T20:33:14.473Z,18.00
2022-10-18T20:36:20.284Z,19.00
2022-10-18T20:39:23.876Z,20.40
2022-10-18T20:42:27.271Z,18.00
2022-10-18T20:45:30.611Z,17.40
2022-10-18T20:48:35.394Z,18.00
2022-10-18T20:51:40.415Z,12.00
2022-10-18T20:54:43.755Z,9.00
2022-10-18T20:57:47.274Z,9.00
2022-10-18T21:00:50.541Z,7.40
2022-10-18T21:03:56.185Z,6.00
2022-10-18T21:07:01.414Z,3.20
2022-10-18T21:10:05.122Z,4.25
2022-10-18T21:13:08.378Z,4.00
2022-10-18T21:16:11.661Z,4.00
2022-10-18T21:19:17.174Z,3.00
2022-10-18T21:22:22.026Z,3.50
2022-10-18T21:25:25.599Z,2.00
2022-10-18T21:28:28.989Z,2.00
2022-10-18T21:31:34.972Z,3.00
2022-10-18T21:34:38.229Z,2.20
2022-10-18T21:37:43.339Z,3.00
2022-10-18T21:40:46.796Z,1.00
2022-10-18T21:43:52.588Z,3.00
2022-10-18T21:46:57.025Z,4.00
2022-10-18T21:50:00.390Z,2.00
2022-10-18T21:53:05.243Z,3.00
2022-10-18T21:56:10.888Z,2.00
2022-10-18T21:59:14.938Z,1.00
2022-10-18T22:02:18.235Z,2.00
2022-10-18T22:05:21.490Z,2.00
2022-10-18T22:08:26.278Z,2.00
2022-10-18T22:11:31.673Z,2.00
2022-10-18T22:14:35.141Z,3.00
2022-10-18T22:17:38.398Z,3.00
2022-10-18T22:20:41.680Z,1.80
2022-10-18T22:23:48.494Z,2.60
2022-10-18T22:26:52.282Z,3.40
2022-10-18T22:29:55.908Z,2.00
2022-10-18T22:32:59.102Z,2.00
2022-10-18T22:36:02.333Z,2.00
2022-10-18T22:39:07.630Z,3.00
2022-10-18T22:42:10.868Z,2.40
2022-10-18T22:45:14.312Z,3.00
2022-10-18T22:48:17.879Z,3.00
2022-10-18T22:51:21.263Z,3.00
2022-10-18T22:54:25.918Z,2.00
2022-10-18T22:57:30.459Z,3.00
2022-10-18T23:00:33.842Z,2.00
2022-10-18T23:03:38.619Z,2.00
2022-10-18T23:06:42.097Z,2.20
2022-10-18T23:09:46.736Z,3.00
2022-10-18T23:12:49.964Z,2.00
2022-10-18T23:15:53.665Z,2.00
2022-10-18T23:18:59.205Z,3.00
2022-10-18T23:22:02.881Z,2.00
2022-10-18T23:25:08.504Z,3.00
2022-10-18T23:28:11.874Z,2.80
2022-10-18T23:31:18.186Z,3.00
2022-10-18T23:34:21.392Z,3.40
2022-10-18T23:37:24.603Z,3.00
2022-10-18T23:40:29.226Z,2.25
2022-10-18T23:43:33.020Z,2.00
2022-10-18T23:46:36.572Z,2.20
2022-10-18T23:49:39.818Z,3.00
2022-10-18T23:52:43.122Z,2.00
2022-10-18T23:55:58.651Z,1.00
2022-10-18T23:59:02.010Z,3.00
